Time;durP1;ratioP1;P1;durP2;ratioP2;P2;SDS_P1;SDS_P2;PMS_P1;PMS_P2;Temp;Humidity;BMP_temperature;BMP_pressure;BME280_temperature;BME280_humidity;BME280_pressure;Samples;Min_cycle;Max_cycle;Signal;HPM_P1;HPM_P2
2023/06/11 04:23:20;;;;;;;8.88;6.85;;;;;;;16.48;81.89;96477.47;2084358;28;20568;-58
2023/06/11 04:24:21;;;;;;;11.60;7.60;;;;;;;16.52;81.75;96486.88;2078993;28;20198;-58
2023/06/11 07:51:04;;;;;;;8.30;5.70;;;;;;;21.51;61.82;96556.44;2090775;27;21113;-59
2023/06/11 07:53:24;;;;;;;10.50;5.72;;;;;;;21.48;61.85;96552.22;2082323;28;20565;-61
2023/06/11 07:55:41;;;;;;;7.95;5.40;;;;;;;21.59;61.97;96564.56;2090098;28;20564;-61
2023/06/11 07:58:02;;;;;;;10.13;5.35;;;;;;;22.27;59.86;96573.44;2084380;28;20585;-60
2023/06/11 08:00:33;;;;;;;10.77;5.75;;;;;;;22.04;60.71;96556.97;2100545;27;21114;-61
2023/06/11 08:03:12;;;;;;;11.25;6.10;;;;;;;22.04;59.93;96565.78;2107677;27;20543;-60
2023/06/11 08:04:15;;;;;;;9.77;5.30;;;;;;;22.05;59.67;96556.81;2098700;28;20274;-61
2023/06/11 08:05:17;;;;;;;7.40;4.90;;;;;;;21.72;60.58;96550.16;2098771;28;20191;-60
2023/06/11 08:07:50;;;;;;;7.50;5.95;;;;;;;21.79;59.18;96527.38;2087010;28;20564;-61
2023/06/11 08:08:52;;;;;;;7.40;5.03;;;;;;;22.11;59.83;96571.38;2078948;28;20220;-61
2023/06/11 08:09:54;;;;;;;7.32;5.93;;;;;;;21.82;59.97;96562.44;2082394;28;20655;-61
2023/06/11 08:10:56;;;;;;;10.40;5.47;;;;;;;22.13;59.45;96564.94;2082145;28;20804;-61
2023/06/11 08:11:57;;;;;;;7.47;5.25;;;;;;;22.03;60.16;96564.13;2080348;28;20227;-61
2023/06/11 08:12:59;;;;;;;8.00;5.45;;;;;;;21.54;60.39;96545.50;2082135;28;20197;-62
2023/06/11 08:14:00;;;;;;;9.43;5.75;;;;;;;21.74;60.27;96559.66;2081588;28;20201;-61
2023/06/11 08:15:02;;;;;;;7.60;5.50;;;;;;;21.98;60.21;96558.41;2082230;28;20704;-61
2023/06/11 08:16:04;;;;;;;7.80;5.63;;;;;;;22.34;57.92;96559.41;2081334;28;20220;-61
2023/06/11 08:17:07;;;;;;;8.27;5.30;;;;;;;22.48;58.48;96558.16;2082497;28;20664;-61
2023/06/11 08:18:09;;;;;;;8.85;4.85;;;;;;;22.69;58.08;96559.78;2082670;28;20204;-61
2023/06/11 08:19:11;;;;;;;7.40;5.00;;;;;;;22.64;58.14;96570.03;2082189;28;20695;-60
2023/06/11 08:20:14;;;;;;;10.20;4.68;;;;;;;22.97;57.15;96562.44;2078434;28;20200;-61
2023/06/11 08:21:16;;;;;;;12.80;5.18;;;;;;;22.73;57.15;96566.47;2081690;28;20533;-60
2023/06/11 08:22:17;;;;;;;8.10;4.95;;;;;;;22.90;57.11;96562.19;2082530;28;20632;-60
2023/06/11 08:23:19;;;;;;;7.38;4.80;;;;;;;22.82;57.38;96560.25;2082433;28;20696;-61
2023/06/11 08:24:24;;;;;;;9.13;5.10;;;;;;;21.98;58.60;96558.41;2082327;28;20296;-58
2023/06/11 08:25:25;;;;;;;14.88;5.85;;;;;;;22.42;57.85;96566.72;2082019;28;20287;-59
2023/06/11 08:26:27;;;;;;;6.28;4.97;;;;;;;22.63;57.13;96525.78;2081624;28;20286;-59
2023/06/11 08:27:30;;;;;;;13.05;5.90;;;;;;;22.30;57.61;96570.50;2078606;28;20216;-59
2023/06/11 08:28:32;;;;;;;6.50;5.10;;;;;;;22.50;57.23;96558.03;2080192;28;20255;-59
2023/06/11 08:29:34;;;;;;;9.15;5.05;;;;;;;22.74;56.62;96559.31;2082653;28;20291;-59
2023/06/11 08:30:36;;;;;;;8.60;5.22;;;;;;;22.55;57.44;96562.88;2081992;28;20193;-59
2023/06/11 08:31:37;;;;;;;9.23;4.57;;;;;;;22.57;56.85;96553.78;2081817;28;20796;-59
2023/06/11 08:32:38;;;;;;;6.40;4.63;;;;;;;22.64;56.61;96557.53;2083714;28;20197;-59
2023/06/11 08:33:40;;;;;;;7.90;5.55;;;;;;;22.37;56.96;96563.63;2082609;28;20208;-59
2023/06/11 08:34:45;;;;;;;6.90;5.10;;;;;;;22.21;57.41;96550.06;2085586;28;20196;-59
2023/06/11 08:35:47;;;;;;;8.10;5.22;;;;;;;22.36;57.46;96548.66;2078022;28;20197;-59
2023/06/11 08:36:50;;;;;;;5.93;4.28;;;;;;;22.12;56.96;96560.59;2081176;28;20697;-58
2023/06/11 08:37:51;;;;;;;7.30;5.40;;;;;;;22.14;57.06;96556.00;2078427;28;20190;-59
2023/06/11 08:38:53;;;;;;;8.02;4.63;;;;;;;22.48;56.67;96546.69;2078762;28;20232;-59
2023/06/11 08:39:54;;;;;;;5.72;4.63;;;;;;;22.89;55.60;96562.34;2082307;28;20253;-59
2023/06/11 08:40:56;;;;;;;6.40;4.85;;;;;;;22.88;54.68;96544.69;2078295;28;20231;-59
2023/06/11 08:41:57;;;;;;;6.10;4.60;;;;;;;23.52;54.63;96552.75;2078177;28;20737;-60
2023/06/11 08:42:59;;;;;;;6.80;4.20;;;;;;;23.21;53.54;96548.59;2083864;28;20232;-60
2023/06/11 08:44:00;;;;;;;5.40;3.72;;;;;;;23.51;53.04;96551.06;2082403;28;20197;-60
2023/06/11 08:45:02;;;;;;;12.93;4.80;;;;;;;23.53;52.78;96547.25;2082285;28;20288;-59
2023/06/11 08:46:05;;;;;;;6.88;4.88;;;;;;;23.58;52.75;96552.09;2081799;28;20304;-60
2023/06/11 08:47:10;;;;;;;7.43;4.60;;;;;;;23.84;52.18;96544.19;2082366;28;20223;-60
2023/06/11 08:48:15;;;;;;;8.10;4.38;;;;;;;24.08;50.85;96546.22;2081709;28;20221;-60
2023/06/11 08:49:21;;;;;;;24.50;5.30;;;;;;;23.98;50.47;96542.81;2082144;28;20201;-60
2023/06/11 08:50:24;;;;;;;20.48;4.13;;;;;;;24.48;49.78;96556.50;2083602;28;20205;-60
2023/06/11 08:51:29;;;;;;;24.58;5.13;;;;;;;24.23;48.87;96549.16;2081970;28;20304;-59
2023/06/11 08:52:35;;;;;;;14.43;4.28;;;;;;;23.57;49.89;96559.28;2082175;28;20332;-59
2023/06/11 08:55:59;;;;;;;7.18;4.60;;;;;;;22.69;53.35;96541.16;2108177;27;20576;-57
2023/06/11 08:57:01;;;;;;;7.57;4.70;;;;;;;23.28;52.23;96555.00;2093899;27;20221;-57
2023/06/11 08:58:03;;;;;;;11.60;4.25;;;;;;;23.46;52.12;96552.38;2094232;28;20259;-60
2023/06/11 08:59:06;;;;;;;9.48;5.13;;;;;;;23.53;51.69;96549.06;2094206;28;20724;-59
2023/06/11 09:00:09;;;;;;;7.10;4.50;;;;;;;23.56;51.43;96557.59;2092935;28;20234;-59
2023/06/11 09:01:11;;;;;;;6.10;4.30;;;;;;;23.76;51.60;96552.13;2093054;28;20640;-60
2023/06/11 09:02:13;;;;;;;5.78;4.63;;;;;;;23.26;52.51;96556.13;2088636;28;20284;-60
2023/06/11 09:05:30;;;;;;;7.90;4.38;;;;;;;23.25;52.04;96565.09;2101148;27;20559;-57
2023/06/11 09:06:33;;;;;;;6.95;3.97;;;;;;;23.61;51.30;96549.97;2090369;28;20223;-57
2023/06/11 09:07:36;;;;;;;7.55;3.95;;;;;;;23.75;51.17;96547.78;2081768;28;20289;-59
2023/06/11 09:08:38;;;;;;;6.20;4.15;;;;;;;24.11;50.91;96551.28;2081945;28;20595;-59
2023/06/11 09:09:39;;;;;;;12.20;4.78;;;;;;;24.10;50.63;96549.59;2082566;28;20218;-60
2023/06/11 09:12:39;;;;;;;8.85;5.70;;;;;;;23.67;51.46;96532.56;2084076;28;20568;-59
2023/06/11 09:13:40;;;;;;;12.30;5.50;;;;;;;24.32;50.37;96536.72;2083787;28;20282;-59
2023/06/11 09:14:52;;;;;;;7.18;5.05;;;;;;;24.37;50.42;96512.25;2082902;28;20198;-59
2023/06/11 09:15:55;;;;;;;18.30;4.60;;;;;;;24.76;49.58;96551.84;2080767;28;20201;-58
2023/06/11 09:16:57;;;;;;;9.52;4.55;;;;;;;24.94;49.55;96551.75;2078372;28;20326;-59
2023/06/11 09:19:53;;;;;;;8.07;4.22;;;;;;;24.86;49.08;96546.38;2083904;28;21704;-56
2023/06/11 09:20:57;;;;;;;10.38;5.18;;;;;;;24.76;49.08;96536.66;2082208;28;20515;-56
2023/06/11 09:22:00;;;;;;;15.18;4.20;;;;;;;25.23;48.85;96540.66;2081967;28;20225;-56
2023/06/11 09:23:02;;;;;;;11.77;4.50;;;;;;;25.56;48.06;96542.56;2081061;28;20208;-56
2023/06/11 09:24:10;;;;;;;5.15;3.95;;;;;;;24.42;48.89;96544.63;2082328;28;20202;-55
2023/06/11 09:25:16;;;;;;;5.88;4.03;;;;;;;23.98;50.52;96548.16;2082513;28;20360;-56
2023/06/11 09:26:19;;;;;;;8.70;5.35;;;;;;;24.20;49.96;96546.84;2081821;28;20205;-56
2023/06/11 09:27:21;;;;;;;9.15;5.18;;;;;;;24.57;50.09;96552.88;2078521;28;20805;-58
2023/06/11 09:28:31;;;;;;;15.35;6.45;;;;;;;24.51;49.17;96546.34;2082177;28;20193;-58
2023/06/11 09:29:34;;;;;;;18.35;11.27;;;;;;;24.98;49.08;96546.94;2080626;28;20194;-58
2023/06/11 09:30:36;;;;;;;28.13;19.88;;;;;;;25.70;48.14;96546.44;2081876;28;20202;-58
2023/06/11 09:31:39;;;;;;;7.68;5.70;;;;;;;25.46;47.41;96547.22;2080692;28;20218;-57
2023/06/11 09:32:42;;;;;;;7.05;3.92;;;;;;;25.63;47.23;96542.75;2082264;28;20228;-58
2023/06/11 09:33:44;;;;;;;9.23;5.07;;;;;;;26.16;46.15;96554.81;2082564;28;20522;-59
2023/06/11 09:34:46;;;;;;;6.80;5.20;;;;;;;26.61;45.95;96555.22;2081887;28;20198;-58
2023/06/11 09:35:48;;;;;;;8.02;5.10;;;;;;;26.91;45.88;96543.97;2081771;28;20200;-58
2023/06/11 09:36:51;;;;;;;7.93;3.90;;;;;;;26.74;44.71;96557.41;2081703;28;20716;-58
2023/06/11 09:38:00;;;;;;;6.88;4.55;;;;;;;25.40;46.24;96546.06;2078384;28;20444;-58
2023/06/11 09:39:03;;;;;;;6.30;4.22;;;;;;;24.19;49.06;96546.97;2080117;28;20950;-58
2023/06/11 09:40:06;;;;;;;6.32;4.85;;;;;;;25.27;48.01;96547.34;2082365;28;20212;-59
2023/06/11 09:41:08;;;;;;;7.63;4.90;;;;;;;26.18;46.51;96547.47;2081553;28;20198;-59
2023/06/11 09:42:23;;;;;;;6.70;4.60;;;;;;;26.85;45.89;96550.84;2082659;28;20201;-60
2023/06/11 09:43:25;;;;;;;6.38;4.40;;;;;;;27.17;45.20;96546.34;2082407;28;20279;-59
2023/06/11 09:44:27;;;;;;;6.18;4.38;;;;;;;27.27;43.09;96551.50;2082384;28;20281;-60
2023/06/11 09:45:31;;;;;;;5.68;4.45;;;;;;;25.62;45.65;96549.09;2082186;28;20209;-59
2023/06/11 09:46:33;;;;;;;7.82;5.22;;;;;;;25.04;46.63;96546.25;2081904;28;20366;-60
2023/06/11 09:47:37;;;;;;;9.55;4.82;;;;;;;25.58;46.47;96552.13;2083172;28;20648;-59
2023/06/11 09:48:40;;;;;;;5.50;4.00;;;;;;;25.53;44.40;96558.94;2082722;28;20200;-60
2023/06/11 09:49:42;;;;;;;6.00;4.15;;;;;;;25.41;45.82;96553.91;2082420;28;20227;-59
2023/06/11 09:50:44;;;;;;;8.75;5.20;;;;;;;25.40;45.35;96554.09;2078259;28;20852;-59
2023/06/11 09:51:47;;;;;;;8.13;4.57;;;;;;;25.58;45.38;96543.25;2081117;28;20233;-60
2023/06/11 09:52:51;;;;;;;6.00;4.63;;;;;;;24.66;46.11;96545.78;2082447;28;20257;-59
2023/06/11 09:53:53;;;;;;;10.80;4.90;;;;;;;25.40;46.34;96554.91;2080824;28;20228;-59
2023/06/11 09:54:56;;;;;;;6.35;3.67;;;;;;;25.51;44.58;96551.09;2082019;28;20259;-59
2023/06/11 09:55:58;;;;;;;8.77;4.15;;;;;;;25.64;45.29;96552.47;2080366;28;20266;-59
2023/06/11 09:57:12;;;;;;;8.05;4.43;;;;;;;26.63;44.40;96547.03;2081915;28;20220;-59
2023/06/11 09:58:17;;;;;;;8.38;4.00;;;;;;;27.23;43.52;96550.19;2074679;28;20977;-59
2023/06/11 09:59:19;;;;;;;7.70;4.60;;;;;;;27.20;43.60;96552.19;2081713;28;20197;-59
2023/06/11 10:00:21;;;;;;;5.05;3.90;;;;;;;27.26;44.04;96556.03;2081754;28;20260;-59
2023/06/11 10:01:25;;;;;;;5.38;4.38;;;;;;;27.66;43.93;96553.28;2081016;28;20345;-59
2023/06/11 10:02:27;;;;;;;8.68;4.25;;;;;;;27.78;42.18;96561.75;2082039;28;20288;-60
2023/06/11 10:03:30;;;;;;;7.22;4.22;;;;;;;27.53;42.39;96553.88;2082119;28;20204;-60
2023/06/11 10:04:32;;;;;;;7.10;4.20;;;;;;;26.92;42.66;96549.16;2082673;28;20223;-60
2023/06/11 10:05:35;;;;;;;9.43;4.35;;;;;;;26.42;43.11;96551.09;2080710;28;20268;-60
2023/06/11 10:06:43;;;;;;;8.13;3.97;;;;;;;26.85;42.36;96554.34;2081594;28;20222;-60
2023/06/11 10:07:50;;;;;;;6.45;4.03;;;;;;;26.30;43.78;96560.50;2082284;28;20293;-59
2023/06/11 10:08:53;;;;;;;5.00;3.70;;;;;;;27.11;42.27;96553.25;2082621;28;20580;-59
2023/06/11 10:09:55;;;;;;;7.63;4.13;;;;;;;26.39;43.23;96557.63;2082253;28;20220;-60
2023/06/11 10:11:01;;;;;;;5.18;3.85;;;;;;;25.46;43.25;96552.56;2081831;28;20255;-59
2023/06/11 10:12:04;;;;;;;10.35;4.03;;;;;;;25.82;42.96;96549.63;2085694;28;20221;-59
2023/06/11 10:13:05;;;;;;;7.18;4.15;;;;;;;26.75;42.42;96542.19;2087175;28;20278;-59
2023/06/11 10:14:12;;;;;;;7.63;4.18;;;;;;;27.02;41.68;96547.09;2080304;28;20197;-59
2023/06/11 10:15:16;;;;;;;5.15;4.05;;;;;;;26.77;41.93;96553.56;2085778;28;20246;-60
2023/06/11 10:16:20;;;;;;;6.97;4.40;;;;;;;26.41;42.25;96560.16;2085045;28;20313;-59
2023/06/11 10:17:22;;;;;;;7.30;4.00;;;;;;;26.20;41.83;96548.13;2083562;28;20197;-59
2023/06/11 10:18:27;;;;;;;6.88;4.10;;;;;;;26.20;42.98;96550.78;2082458;28;20220;-60
2023/06/11 10:19:38;;;;;;;6.72;4.28;;;;;;;27.32;42.16;96547.25;2081425;28;20592;-60
2023/06/11 10:20:54;;;;;;;8.50;4.10;;;;;;;27.61;40.54;96555.66;2081945;28;20285;-60
2023/06/11 10:22:01;;;;;;;4.95;3.80;;;;;;;26.53;42.49;96558.75;2081253;28;20275;-60
2023/06/11 10:23:10;;;;;;;7.25;3.20;;;;;;;25.99;42.57;96550.44;2080509;28;20201;-59
2023/06/11 10:24:23;;;;;;;5.47;3.53;;;;;;;25.65;42.08;96549.63;2082951;28;20211;-60
2023/06/11 10:25:32;;;;;;;7.28;4.10;;;;;;;25.26;42.57;96543.00;2080424;28;20252;-60
2023/06/11 10:26:35;;;;;;;139.68;79.15;;;;;;;26.11;41.87;96541.13;2078958;28;20286;-59
2023/06/11 10:27:40;;;;;;;5.03;3.75;;;;;;;26.07;41.47;96542.47;2081273;28;20460;-58
2023/06/11 10:28:41;;;;;;;10.30;4.05;;;;;;;25.89;42.00;96548.78;2081980;28;20209;-59
2023/06/11 10:29:48;;;;;;;9.70;5.85;;;;;;;26.94;40.98;96547.09;2082008;28;20247;-59
2023/06/11 10:30:53;;;;;;;6.00;3.90;;;;;;;26.43;40.89;96544.75;2075023;28;20206;-58
2023/06/11 10:31:58;;;;;;;5.80;4.25;;;;;;;25.85;42.52;96539.44;2073821;28;20222;-58
2023/06/11 10:33:00;;;;;;;7.72;4.15;;;;;;;25.62;43.55;96538.41;2075374;28;20650;-58
2023/06/11 10:34:03;;;;;;;5.30;3.60;;;;;;;25.07;43.23;96545.94;2076468;28;20226;-58
2023/06/11 10:35:07;;;;;;;7.53;4.40;;;;;;;25.04;44.08;96547.13;2076299;28;20231;-59
2023/06/11 10:36:20;;;;;;;5.60;4.18;;;;;;;25.33;43.43;96545.88;2076410;28;20209;-58
2023/06/11 10:37:31;;;;;;;5.80;3.85;;;;;;;25.82;43.53;96544.28;2076247;28;20293;-58
2023/06/11 10:38:38;;;;;;;10.68;4.55;;;;;;;26.73;41.73;96539.69;2076442;28;21061;-58
2023/06/11 10:39:54;;;;;;;7.43;4.15;;;;;;;27.23;38.58;96539.47;2074582;28;20202;-58
2023/06/11 10:41:05;;;;;;;4.82;4.10;;;;;;;26.54;39.15;96549.72;2077584;28;20212;-58
2023/06/11 10:42:07;;;;;;;7.80;3.75;;;;;;;26.35;38.87;96552.81;2075243;28;20896;-58
2023/06/11 10:43:19;;;;;;;18.67;4.80;;;;;;;25.87;40.19;96547.28;2074728;28;20200;-58
2023/06/11 10:44:23;;;;;;;9.25;4.45;;;;;;;26.18;39.99;96542.13;2073299;28;20210;-59
2023/06/11 10:45:38;;;;;;;11.45;4.18;;;;;;;26.76;38.84;96542.00;2076236;28;20220;-59
2023/06/11 10:46:53;;;;;;;6.30;3.17;;;;;;;26.33;38.11;96544.09;2075537;28;20225;-58
2023/06/11 10:47:59;;;;;;;5.03;3.55;;;;;;;27.52;36.82;96542.31;2076256;28;20526;-58
2023/06/11 10:49:12;;;;;;;6.90;5.22;;;;;;;27.82;36.76;96536.22;2076232;28;20201;-57
2023/06/11 10:50:15;;;;;;;16.05;10.50;;;;;;;28.44;36.36;96545.94;2075853;28;20281;-59
2023/06/11 10:51:17;;;;;;;8.48;5.30;;;;;;;28.53;36.20;96535.91;2085212;28;20870;-57
2023/06/11 10:52:19;;;;;;;18.33;12.40;;;;;;;28.93;35.69;96549.13;2084111;28;20201;-58
2023/06/11 10:53:20;;;;;;;6.78;3.88;;;;;;;27.94;36.04;96542.84;2072675;28;20237;-59
2023/06/11 10:54:26;;;;;;;19.73;13.57;;;;;;;28.17;35.55;96544.69;2075606;28;20229;-58
2023/06/11 10:55:29;;;;;;;28.52;4.20;;;;;;;28.02;37.03;96544.59;2075750;28;20209;-57
2023/06/11 10:56:31;;;;;;;13.70;4.68;;;;;;;28.37;36.36;96549.50;2074793;28;20277;-57
2023/06/11 10:57:33;;;;;;;5.22;4.07;;;;;;;28.95;35.71;96544.38;2076503;28;20202;-58
2023/06/11 10:58:36;;;;;;;5.25;4.05;;;;;;;27.58;35.75;96540.78;2076496;28;20194;-57
2023/06/11 10:59:38;;;;;;;8.20;3.85;;;;;;;26.60;38.29;96537.53;2075874;28;20461;-58
2023/06/11 11:00:41;;;;;;;9.48;4.18;;;;;;;26.63;38.29;96528.31;2074100;28;20213;-57
2023/06/11 11:01:42;;;;;;;7.13;3.95;;;;;;;26.84;37.87;96535.78;2075143;28;20218;-57
2023/06/11 11:02:46;;;;;;;9.63;3.78;;;;;;;26.41;37.63;96528.03;2076563;28;20880;-57
2023/06/11 11:03:52;;;;;;;11.60;5.22;;;;;;;26.41;37.63;96528.03;2076204;28;20279;-57
2023/06/11 11:04:55;;;;;;;10.77;3.88;;;;;;;26.94;38.61;96527.53;2074863;28;20194;-58
2023/06/11 11:05:58;;;;;;;7.70;4.25;;;;;;;27.14;37.87;96528.78;2075671;28;20755;-58
2023/06/11 11:07:11;;;;;;;8.43;4.07;;;;;;;28.14;37.16;96527.09;2077025;28;20237;-57
2023/06/11 11:08:16;;;;;;;13.50;4.60;;;;;;;28.74;37.20;96523.66;2076956;28;20569;-57
2023/06/11 11:09:23;;;;;;;10.65;4.22;;;;;;;29.06;36.49;96508.13;2076799;28;20201;-57
2023/06/11 11:10:26;;;;;;;6.18;4.03;;;;;;;29.42;35.70;96532.34;2075873;28;20212;-58
2023/06/11 11:11:27;;;;;;;12.45;3.83;;;;;;;29.71;34.32;96535.13;2073304;28;20233;-59
2023/06/11 11:12:43;;;;;;;7.13;3.55;;;;;;;28.93;34.97;96538.38;2076613;28;20675;-58
2023/06/11 11:13:48;;;;;;;11.27;4.28;;;;;;;28.84;34.72;96532.25;2078787;28;20301;-58
2023/06/11 11:14:50;;;;;;;5.85;3.83;;;;;;;28.82;34.52;96536.97;2076415;28;20214;-58
2023/06/11 11:15:52;;;;;;;21.85;4.63;;;;;;;28.20;35.46;96533.56;2072388;28;20253;-58
2023/06/11 11:16:53;;;;;;;8.88;4.20;;;;;;;28.60;36.23;96538.72;2072203;28;20230;-58
2023/06/11 11:17:57;;;;;;;6.73;4.07;;;;;;;29.08;36.13;96541.88;2075970;28;20201;-57
2023/06/11 11:18:58;;;;;;;5.75;3.72;;;;;;;27.82;36.56;96541.59;2076150;28;20483;-58
2023/06/11 11:20:00;;;;;;;7.20;3.92;;;;;;;28.45;36.86;96536.84;2075879;28;20680;-57
2023/06/11 11:21:02;;;;;;;6.80;4.28;;;;;;;27.73;36.28;96548.03;2071713;28;20864;-57
2023/06/11 11:22:04;;;;;;;5.40;3.75;;;;;;;27.68;36.84;96536.00;2076110;28;20248;-57
2023/06/11 11:23:05;;;;;;;6.32;4.32;;;;;;;28.71;36.60;96527.56;2076279;28;20326;-58
2023/06/11 11:24:12;;;;;;;7.07;4.00;;;;;;;28.37;36.27;96531.56;2072419;28;20859;-57
2023/06/11 11:25:15;;;;;;;6.50;4.43;;;;;;;28.78;35.56;96530.31;2074176;28;20289;-58
2023/06/11 11:26:17;;;;;;;6.30;3.53;;;;;;;29.40;34.89;96528.19;2075655;28;20249;-58
2023/06/11 11:27:22;;;;;;;7.57;3.88;;;;;;;29.87;33.90;96529.47;2076714;28;20194;-57
2023/06/11 11:28:24;;;;;;;5.55;3.83;;;;;;;29.78;33.39;96536.03;2075795;28;20281;-57
2023/06/11 11:29:28;;;;;;;13.10;3.95;;;;;;;30.18;33.22;96530.16;2072250;28;20650;-59
2023/06/11 11:30:30;;;;;;;6.20;3.70;;;;;;;29.96;32.85;96527.50;2073244;28;20262;-58
2023/06/11 11:31:32;;;;;;;6.80;4.00;;;;;;;29.88;33.15;96528.47;2071623;28;20457;-57
2023/06/11 11:32:34;;;;;;;5.20;3.70;;;;;;;30.08;33.27;96534.03;2075360;28;20428;-57
2023/06/11 11:33:36;;;;;;;6.93;3.57;;;;;;;30.28;32.30;96527.97;2075995;28;20432;-58
2023/06/11 11:34:39;;;;;;;6.23;3.80;;;;;;;30.64;32.54;96527.00;2076067;28;20440;-58
2023/06/11 11:35:48;;;;;;;3.90;3.40;;;;;;;30.80;32.53;96531.22;2076219;28;20871;-58
2023/06/11 11:36:50;;;;;;;8.23;4.10;;;;;;;30.87;32.30;96529.41;2075195;28;20467;-58
2023/06/11 11:37:54;;;;;;;5.23;2.97;;;;;;;31.03;32.84;96532.78;2075257;28;20456;-58
2023/06/11 11:38:56;;;;;;;7.00;4.00;;;;;;;30.75;32.29;96534.53;2075174;28;20438;-58
2023/06/11 11:40:06;;;;;;;4.30;3.30;;;;;;;30.97;32.14;96520.94;2075621;28;20936;-59
2023/06/11 11:41:11;;;;;;;6.10;3.53;;;;;;;31.15;31.96;96524.97;2075588;28;20431;-58
2023/06/11 11:42:14;;;;;;;4.90;3.70;;;;;;;31.32;31.42;96517.38;2075460;28;20468;-58
2023/06/11 11:43:15;;;;;;;4.33;3.17;;;;;;;31.41;31.08;96524.22;2074592;28;20850;-58
2023/06/11 11:44:17;;;;;;;7.50;3.40;;;;;;;31.19;30.59;96521.66;2075140;28;20515;-59
2023/06/11 11:45:21;;;;;;;6.37;3.40;;;;;;;29.58;33.33;96523.19;2072180;28;20427;-58
2023/06/11 11:46:25;;;;;;;3.90;2.90;;;;;;;29.66;33.05;96514.16;2074939;28;20528;-58
2023/06/11 11:47:27;;;;;;;6.00;3.53;;;;;;;30.32;32.63;96523.84;2075615;28;20510;-58
2023/06/11 11:48:32;;;;;;;10.47;4.17;;;;;;;30.33;32.72;96522.81;2074808;28;20459;-59
2023/06/11 11:49:34;;;;;;;4.90;3.50;;;;;;;29.89;33.61;96523.94;2075185;28;20447;-59
2023/06/11 11:50:36;;;;;;;6.90;3.83;;;;;;;29.25;33.78;96522.81;2075346;28;20424;-58
2023/06/11 11:51:42;;;;;;;5.60;3.50;;;;;;;28.25;34.50;96515.09;2075195;28;20563;-59
2023/06/11 11:52:45;;;;;;;5.83;3.50;;;;;;;28.52;33.45;96518.16;2075563;28;20430;-58
2023/06/11 11:53:47;;;;;;;8.13;4.33;;;;;;;28.91;34.10;96518.91;2071955;28;20438;-58
2023/06/11 11:54:49;;;;;;;5.77;3.97;;;;;;;28.96;34.10;96521.84;2075469;28;20438;-58
2023/06/11 11:55:51;;;;;;;4.87;3.80;;;;;;;29.08;33.26;96524.91;2083093;28;20527;-59
2023/06/11 11:57:09;;;;;;;8.90;3.80;;;;;;;29.64;33.77;96516.22;2078972;28;20444;-58
2023/06/11 11:58:13;;;;;;;9.80;3.97;;;;;;;30.54;32.47;96513.88;2076885;28;20463;-57
2023/06/11 11:59:19;;;;;;;6.37;3.43;;;;;;;30.80;31.60;96506.16;2075309;28;20460;-58
2023/06/11 12:00:25;;;;;;;5.30;3.47;;;;;;;30.99;31.97;96510.78;2075413;28;20969;-58
2023/06/11 12:01:32;;;;;;;5.80;3.83;;;;;;;30.18;32.51;96506.75;2075418;28;20508;-58
2023/06/11 12:02:34;;;;;;;5.80;3.97;;;;;;;30.50;32.93;96519.84;2071852;28;20917;-58
2023/06/11 12:03:39;;;;;;;5.07;3.60;;;;;;;29.40;33.62;96510.19;2074617;28;20920;-59
2023/06/11 12:04:45;;;;;;;4.43;4.00;;;;;;;30.31;33.90;96506.06;2074256;28;20459;-62
2023/06/11 12:06:00;;;;;;;5.37;3.97;;;;;;;31.01;33.22;96510.56;2075602;28;20517;-59
2023/06/11 12:07:06;;;;;;;9.63;4.13;;;;;;;31.23;33.55;96505.94;2071168;28;20453;-60
2023/06/11 12:08:08;;;;;;;6.33;3.47;;;;;;;31.70;32.65;96512.25;2073639;28;20623;-59
2023/06/11 12:09:10;;;;;;;5.50;3.50;;;;;;;30.73;32.46;96506.94;2076430;28;20467;-58
2023/06/11 12:10:12;;;;;;;6.37;4.40;;;;;;;31.14;32.78;96512.53;2072066;28;20432;-59
2023/06/11 12:11:14;;;;;;;4.17;3.60;;;;;;;29.68;33.98;96509.44;2071445;28;20482;-58
2023/06/11 12:12:16;;;;;;;6.63;3.70;;;;;;;28.60;34.91;96496.56;2075272;28;20833;-58
2023/06/11 12:13:18;;;;;;;6.67;3.87;;;;;;;27.82;36.46;96496.84;2073147;28;20501;-58
2023/06/11 12:14:19;;;;;;;9.90;3.83;;;;;;;28.21;36.60;96505.72;2074739;28;21001;-57
2023/06/11 12:15:21;;;;;;;5.40;3.90;;;;;;;28.79;35.75;96502.44;2071610;28;20747;-57
2023/06/11 12:16:23;;;;;;;8.40;4.53;;;;;;;28.46;35.00;96481.31;2073147;28;20521;-57
2023/06/11 12:17:25;;;;;;;7.93;4.70;;;;;;;28.51;36.40;96493.16;2075379;28;20441;-58
2023/06/11 12:18:27;;;;;;;5.03;3.90;;;;;;;29.41;35.60;96497.59;2075220;28;20936;-57
2023/06/11 12:19:29;;;;;;;5.40;4.00;;;;;;;28.61;35.51;96500.94;2075117;28;20464;-58
2023/06/11 12:20:31;;;;;;;10.10;4.73;;;;;;;28.72;35.70;96501.50;2075281;28;20468;-58
2023/06/11 12:21:33;;;;;;;9.80;4.50;;;;;;;29.52;35.46;96497.06;2074383;28;20488;-58
2023/06/11 12:22:35;;;;;;;6.77;4.67;;;;;;;29.87;34.30;96502.56;2072207;28;20538;-58
2023/06/11 12:23:36;;;;;;;7.60;3.90;;;;;;;29.80;34.52;96501.66;2073079;28;20425;-59
2023/06/11 12:24:37;;;;;;;4.93;3.83;;;;;;;28.72;34.98;96496.13;2077491;28;21146;-58
2023/06/11 12:25:40;;;;;;;6.17;4.00;;;;;;;29.23;34.69;96498.81;2073966;28;20420;-58
2023/06/11 12:26:42;;;;;;;8.27;4.23;;;;;;;28.52;35.23;96496.69;2075179;28;21273;-58
2023/06/11 12:27:44;;;;;;;6.50;3.37;;;;;;;29.99;33.74;96494.00;2075980;28;20435;-59
2023/06/11 12:28:46;;;;;;;6.57;3.07;;;;;;;30.79;32.38;96491.81;2074594;28;20504;-58
2023/06/11 12:29:52;;;;;;;5.20;2.93;;;;;;;30.23;31.49;96490.88;2074558;28;20615;-58
2023/06/11 12:30:54;;;;;;;6.90;3.97;;;;;;;28.84;33.35;96490.09;2075734;28;20430;-58
2023/06/11 12:31:55;;;;;;;7.43;3.77;;;;;;;28.17;34.12;96489.16;2074771;28;20514;-58
2023/06/11 12:32:57;;;;;;;9.10;3.90;;;;;;;26.97;35.20;96487.84;2075304;28;20429;-58
2023/06/11 12:33:59;;;;;;;6.30;3.75;;;;;;;26.61;35.97;96484.78;2074783;28;21142;-58
2023/06/11 12:35:01;;;;;;;5.07;3.80;;;;;;;27.27;34.81;96479.13;2075223;28;20266;-59
2023/06/11 12:36:03;;;;;;;5.85;3.60;;;;;;;27.74;34.58;96475.44;2070892;28;20237;-59
2023/06/11 12:37:06;;;;;;;4.88;3.60;;;;;;;28.56;34.86;96483.72;2073762;28;20233;-60
2023/06/11 12:38:07;;;;;;;6.03;3.83;;;;;;;28.84;33.69;96482.03;2074877;28;20649;-59
2023/06/11 12:39:10;;;;;;;8.75;4.28;;;;;;;28.87;34.05;96491.56;2071881;28;20206;-59
2023/06/11 12:40:12;;;;;;;7.75;3.80;;;;;;;29.62;33.41;96488.69;2075732;28;20201;-59
2023/06/11 12:41:15;;;;;;;9.40;3.47;;;;;;;30.29;32.70;96479.28;2074232;28;20437;-59
2023/06/11 12:42:20;;;;;;;7.05;3.42;;;;;;;30.91;31.99;96482.13;2073430;28;20198;-59
2023/06/11 12:43:21;;;;;;;8.80;3.92;;;;;;;31.29;30.87;96491.63;2075032;28;20618;-59
2023/06/11 12:44:23;;;;;;;4.63;3.47;;;;;;;31.51;31.15;96486.06;2074922;28;20258;-59
2023/06/11 12:45:26;;;;;;;6.87;4.33;;;;;;;31.74;31.08;96483.00;2071535;28;20463;-59
2023/06/11 12:46:30;;;;;;;6.30;3.33;;;;;;;31.88;31.40;96486.53;2074208;28;20571;-58
2023/06/11 12:47:32;;;;;;;9.03;4.37;;;;;;;31.92;30.66;96487.78;2075786;28;20433;-59
2023/06/11 12:48:34;;;;;;;5.20;3.57;;;;;;;32.20;30.61;96482.19;2074480;28;20437;-58
2023/06/11 12:49:35;;;;;;;4.87;3.10;;;;;;;31.18;30.97;96484.13;2073127;28;20429;-58
2023/06/11 12:50:38;;;;;;;5.33;3.83;;;;;;;31.85;31.36;96484.28;2076007;28;20429;-58
2023/06/11 12:51:43;;;;;;;4.63;3.47;;;;;;;30.76;31.11;96478.75;2074013;28;20461;-59
2023/06/11 12:52:45;;;;;;;6.20;4.63;;;;;;;30.88;30.96;96479.84;2074733;28;20437;-59
2023/06/11 12:53:47;;;;;;;22.10;15.13;;;;;;;30.97;30.45;96485.06;2074801;28;20449;-62
2023/06/11 12:54:48;;;;;;;20.83;11.30;;;;;;;30.84;31.35;96475.06;2073080;28;20434;-60
2023/06/11 12:55:50;;;;;;;11.53;3.23;;;;;;;30.57;31.08;96477.63;2076322;28;20438;-60
2023/06/11 12:56:52;;;;;;;11.83;3.67;;;;;;;31.12;31.14;96477.66;2073960;28;20467;-60
2023/06/11 12:57:53;;;;;;;6.60;3.60;;;;;;;29.30;31.78;96482.78;2074094;28;20937;-59
2023/06/11 12:58:55;;;;;;;4.80;3.87;;;;;;;28.46;33.45;96478.63;2074718;28;20431;-60
2023/06/11 12:59:56;;;;;;;4.97;4.07;;;;;;;27.77;34.41;96479.59;2074310;28;20434;-59
2023/06/11 13:00:58;;;;;;;7.97;3.60;;;;;;;27.36;34.87;96472.69;2074288;28;20517;-59
2023/06/11 13:01:59;;;;;;;12.55;4.57;;;;;;;27.19;35.58;96470.13;2073652;28;20479;-61
2023/06/11 13:03:01;;;;;;;5.00;4.10;;;;;;;27.94;35.53;96469.56;2074772;28;20237;-60
2023/06/11 13:04:03;;;;;;;6.55;3.03;;;;;;;29.22;34.26;96467.59;2071490;28;20202;-60